createdAt,value
2023-03-06T00:02:21.418Z,24.75
2023-03-06T00:04:48.483Z,24.45
2023-03-06T00:07:15.252Z,23.13
2023-03-06T00:09:42.376Z,19.52
2023-03-06T00:12:09.432Z,23.40
2023-03-06T00:14:36.490Z,20.33
2023-03-06T00:17:03.289Z,19.48
2023-03-06T00:19:30.332Z,21.73
2023-03-06T00:21:57.400Z,17.70
2023-03-06T00:24:24.490Z,23.30
2023-03-06T00:26:51.296Z,17.20
2023-03-06T00:29:18.344Z,18.73
2023-03-06T00:31:47.884Z,17.33
2023-03-06T00:34:15.141Z,18.85
2023-03-06T00:36:42.032Z,16.23
2023-03-06T00:39:09.210Z,18.80
2023-03-06T00:41:36.046Z,21.25
2023-03-06T00:44:03.106Z,18.48
2023-03-06T00:46:29.880Z,19.60
2023-03-06T00:48:56.973Z,16.60
2023-03-06T00:51:23.749Z,18.15
2023-03-06T00:53:50.804Z,20.20
2023-03-06T00:56:19.845Z,20.33
2023-03-06T00:58:47.010Z,19.27
2023-03-06T01:01:13.786Z,16.45
2023-03-06T01:03:41.023Z,19.58
2023-03-06T01:06:07.857Z,19.00
2023-03-06T01:08:34.939Z,21.00
2023-03-06T01:11:01.688Z,18.48
2023-03-06T01:13:28.732Z,21.67
2023-03-06T01:15:55.548Z,22.70
2023-03-06T01:18:22.649Z,22.55
2023-03-06T01:20:50.454Z,19.23
2023-03-06T01:23:17.480Z,17.67
2023-03-06T01:25:44.218Z,19.48
2023-03-06T01:28:11.292Z,18.60
2023-03-06T01:30:38.033Z,20.13
2023-03-06T01:33:05.142Z,18.15
2023-03-06T01:35:31.937Z,17.35
2023-03-06T01:37:59.032Z,14.82
2023-03-06T01:40:25.793Z,18.35
2023-03-06T01:42:53.052Z,16.08
2023-03-06T01:45:19.762Z,16.42
2023-03-06T01:47:46.831Z,19.50
2023-03-06T01:50:13.609Z,19.35
2023-03-06T01:52:52.506Z,16.85
2023-03-06T01:55:24.929Z,19.60
2023-03-06T01:57:53.633Z,15.52
2023-03-06T02:00:29.624Z,16.90
2023-03-06T02:03:35.336Z,16.30
2023-03-06T02:06:02.158Z,16.80
2023-03-06T02:08:29.199Z,15.98
2023-03-06T02:11:11.209Z,15.95
2023-03-06T02:13:38.341Z,14.95
2023-03-06T02:16:05.427Z,17.15
2023-03-06T02:18:33.297Z,16.52
2023-03-06T02:21:02.516Z,17.27
2023-03-06T02:23:54.554Z,17.30
2023-03-06T02:26:21.400Z,16.13
2023-03-06T02:28:48.430Z,15.98
2023-03-06T02:31:26.926Z,14.70
2023-03-06T02:34:15.399Z,12.40
2023-03-06T02:36:49.921Z,14.00
2023-03-06T02:39:18.684Z,17.00
2023-03-06T02:41:45.418Z,14.65
2023-03-06T02:44:12.478Z,16.23
2023-03-06T02:46:39.284Z,13.13
2023-03-06T02:49:06.362Z,18.52
2023-03-06T02:51:33.115Z,16.33
2023-03-06T02:54:00.193Z,15.82
2023-03-06T02:56:27.042Z,16.05
2023-03-06T02:58:54.166Z,11.85
2023-03-06T03:01:20.924Z,15.80
2023-03-06T03:03:48.012Z,14.55
2023-03-06T03:06:14.774Z,14.25
2023-03-06T03:08:41.789Z,15.68
2023-03-06T03:11:09.393Z,16.48
2023-03-06T03:13:37.594Z,13.57
2023-03-06T03:16:08.822Z,15.43
2023-03-06T03:18:36.185Z,15.48
2023-03-06T03:21:06.750Z,16.15
2023-03-06T03:23:33.788Z,13.32
2023-03-06T03:26:11.591Z,15.95
2023-03-06T03:28:38.653Z,17.33
2023-03-06T03:31:06.479Z,16.52
2023-03-06T03:33:33.790Z,16.65
2023-03-06T03:36:01.099Z,13.93
2023-03-06T03:38:28.226Z,18.67
2023-03-06T03:40:54.970Z,17.48
2023-03-06T03:43:22.035Z,18.38
2023-03-06T03:45:48.786Z,19.75
2023-03-06T03:48:15.822Z,20.25
2023-03-06T03:50:42.596Z,19.42
2023-03-06T03:53:09.773Z,22.52
2023-03-06T03:55:36.715Z,21.70
2023-03-06T03:58:03.749Z,20.05
2023-03-06T04:00:30.502Z,20.42
2023-03-06T04:02:57.571Z,21.67
2023-03-06T04:05:24.330Z,22.58
2023-03-06T04:07:51.414Z,19.58
2023-03-06T04:10:18.190Z,26.40
2023-03-06T04:12:45.274Z,25.02
2023-03-06T04:15:12.047Z,24.73
2023-03-06T04:17:39.179Z,26.05
2023-03-06T04:20:06.378Z,26.35
2023-03-06T04:22:33.463Z,32.65
2023-03-06T04:25:00.214Z,26.58
2023-03-06T04:27:27.233Z,28.33
2023-03-06T04:29:56.399Z,33.65
2023-03-06T04:32:24.016Z,37.83
2023-03-06T04:34:50.953Z,41.42
2023-03-06T04:37:22.304Z,42.55
2023-03-06T04:39:49.171Z,37.60
2023-03-06T04:42:16.357Z,38.78
2023-03-06T04:44:43.175Z,49.55
2023-03-06T04:47:10.376Z,43.75
2023-03-06T04:49:37.204Z,42.03
2023-03-06T04:52:04.427Z,43.20
2023-03-06T04:54:31.322Z,38.50
2023-03-06T04:56:58.423Z,39.00
2023-03-06T04:59:25.188Z,39.00
2023-03-06T05:01:52.311Z,42.75
2023-03-06T05:04:19.109Z,41.88
2023-03-06T05:06:46.214Z,40.03
2023-03-06T05:09:12.976Z,42.13
2023-03-06T05:11:40.041Z,46.58
2023-03-06T05:14:06.825Z,44.95
2023-03-06T05:16:33.873Z,52.95
2023-03-06T05:19:00.650Z,54.75
2023-03-06T05:21:27.701Z,54.85
2023-03-06T05:23:54.476Z,49.17
2023-03-06T05:26:21.536Z,46.10
2023-03-06T05:28:48.310Z,43.92
2023-03-06T05:31:15.480Z,43.75
2023-03-06T05:33:42.313Z,41.83
2023-03-06T05:36:09.580Z,45.55
2023-03-06T05:38:36.371Z,40.10
2023-03-06T05:41:03.508Z,38.08
2023-03-06T05:43:30.255Z,42.20
2023-03-06T05:46:02.582Z,39.22
2023-03-06T05:48:29.541Z,34.60
2023-03-06T05:50:57.562Z,31.73
2023-03-06T05:53:24.394Z,34.95
2023-03-06T05:56:02.710Z,33.05
2023-03-06T05:58:29.878Z,35.78
2023-03-06T06:00:57.035Z,36.47
2023-03-06T06:03:23.918Z,39.80
2023-03-06T06:05:51.330Z,41.85
2023-03-06T06:08:18.578Z,42.63
2023-03-06T06:10:45.660Z,40.42
2023-03-06T06:13:12.413Z,40.13
2023-03-06T06:15:39.474Z,44.83
2023-03-06T06:18:06.301Z,41.47
2023-03-06T06:20:33.369Z,40.00
2023-03-06T06:23:00.158Z,42.47
2023-03-06T06:25:27.202Z,41.58
2023-03-06T06:27:57.774Z,35.72
2023-03-06T06:30:24.970Z,36.03
2023-03-06T06:32:51.741Z,36.90
2023-03-06T06:35:18.860Z,34.70
2023-03-06T06:37:45.621Z,35.10
2023-03-06T06:40:12.953Z,32.92
2023-03-06T06:42:40.264Z,33.90
2023-03-06T06:45:11.528Z,33.08
2023-03-06T06:47:41.669Z,32.95
2023-03-06T06:50:13.105Z,29.80
2023-03-06T06:52:40.196Z,31.73
2023-03-06T06:55:07.733Z,29.50
2023-03-06T06:57:34.514Z,28.05
2023-03-06T07:00:01.556Z,28.23
2023-03-06T07:02:28.440Z,28.25
2023-03-06T07:05:04.198Z,27.25
2023-03-06T07:07:33.624Z,26.20
2023-03-06T07:10:00.713Z,21.70
2023-03-06T07:12:27.540Z,25.48
2023-03-06T07:14:54.647Z,29.27
2023-03-06T07:17:21.420Z,23.17
2023-03-06T07:19:48.635Z,22.98
2023-03-06T07:22:15.444Z,21.42
2023-03-06T07:24:42.538Z,24.45
2023-03-06T07:27:09.251Z,21.30
2023-03-06T07:29:36.335Z,22.85
2023-03-06T07:32:03.206Z,23.42
2023-03-06T07:34:30.305Z,23.70
2023-03-06T07:36:57.043Z,20.00
2023-03-06T07:39:24.161Z,22.65
2023-03-06T07:41:52.242Z,23.52
2023-03-06T07:44:20.083Z,19.27
2023-03-06T07:46:46.882Z,19.98
2023-03-06T07:49:14.050Z,22.33
2023-03-06T07:51:40.823Z,23.25
2023-03-06T07:54:07.866Z,20.45
2023-03-06T07:56:35.144Z,19.10
2023-03-06T07:59:03.523Z,20.95
2023-03-06T08:01:30.329Z,20.95
2023-03-06T08:03:57.736Z,22.58
2023-03-06T08:06:26.243Z,21.35
2023-03-06T08:08:53.947Z,19.27
2023-03-06T08:11:22.112Z,23.15
2023-03-06T08:13:49.346Z,22.67
2023-03-06T08:16:17.441Z,21.25
2023-03-06T08:18:46.311Z,32.25
2023-03-06T08:21:23.931Z,33.25
2023-03-06T08:23:51.126Z,37.47
2023-03-06T08:26:26.098Z,49.78
2023-03-06T08:28:54.331Z,65.70
2023-03-06T08:31:27.636Z,84.55
2023-03-06T08:33:55.274Z,88.72
2023-03-06T08:36:22.121Z,95.95
2023-03-06T08:38:49.188Z,82.85
2023-03-06T08:41:15.960Z,83.70
2023-03-06T08:43:43.243Z,81.78
2023-03-06T08:46:10.435Z,76.30
2023-03-06T08:48:37.787Z,76.93
2023-03-06T08:51:04.756Z,70.03
2023-03-06T08:53:42.772Z,62.75
2023-03-06T08:56:30.149Z,64.32
2023-03-06T08:58:58.252Z,51.50
2023-03-06T09:01:26.747Z,57.03
2023-03-06T09:03:58.126Z,51.55
2023-03-06T09:06:25.265Z,45.28
2023-03-06T09:08:53.045Z,44.28
2023-03-06T09:11:19.909Z,49.13
2023-03-06T09:13:47.290Z,45.38
2023-03-06T09:16:14.114Z,39.97
2023-03-06T09:18:41.439Z,38.83
2023-03-06T09:21:08.970Z,35.55
2023-03-06T09:23:37.105Z,31.70
2023-03-06T09:26:03.997Z,33.15
2023-03-06T09:28:31.202Z,29.13
2023-03-06T09:30:58.075Z,25.60
2023-03-06T09:33:25.661Z,28.52
2023-03-06T09:35:56.327Z,28.33
2023-03-06T09:38:25.518Z,27.70
2023-03-06T09:41:02.176Z,29.73
2023-03-06T09:43:30.793Z,35.58
2023-03-06T09:45:58.632Z,40.70
2023-03-06T09:48:44.596Z,39.38
2023-03-06T09:51:15.179Z,36.88
2023-03-06T09:53:51.104Z,33.15
2023-03-06T09:56:22.636Z,34.88
2023-03-06T09:58:59.640Z,31.15
2023-03-06T10:01:28.367Z,31.20
2023-03-06T10:04:23.422Z,31.20
2023-03-06T10:06:51.787Z,35.05
2023-03-06T10:09:21.819Z,32.35
2023-03-06T10:12:24.570Z,31.77
2023-03-06T10:15:02.154Z,26.60
2023-03-06T10:17:34.568Z,25.90
2023-03-06T10:20:06.994Z,28.88
2023-03-06T10:22:46.139Z,27.55
2023-03-06T10:25:28.147Z,27.75
2023-03-06T10:28:21.885Z,21.45
2023-03-06T10:31:14.019Z,25.42
2023-03-06T10:33:57.378Z,21.33
2023-03-06T10:36:28.866Z,25.15
2023-03-06T10:38:57.149Z,26.92
2023-03-06T10:41:31.253Z,21.85
2023-03-06T10:44:00.779Z,23.55
2023-03-06T10:46:29.767Z,22.02
2023-03-06T10:49:28.393Z,20.05
2023-03-06T10:52:20.875Z,22.27
2023-03-06T10:54:48.399Z,21.27
2023-03-06T10:57:35.828Z,17.67
2023-03-06T11:00:06.016Z,18.58
2023-03-06T11:02:38.538Z,18.02
2023-03-06T11:05:05.952Z,20.13
2023-03-06T11:07:34.247Z,16.67
2023-03-06T11:10:07.620Z,17.45
2023-03-06T11:12:41.911Z,14.10
2023-03-06T11:15:14.845Z,15.85
2023-03-06T11:18:00.353Z,13.57
2023-03-06T11:20:52.566Z,13.57
2023-03-06T11:23:37.322Z,13.15
2023-03-06T11:26:20.101Z,11.30
2023-03-06T11:28:48.555Z,9.85
2023-03-06T11:31:17.361Z,17.35
2023-03-06T11:34:08.932Z,16.88
2023-03-06T11:36:47.749Z,15.70
2023-03-06T11:39:22.684Z,14.88
2023-03-06T11:42:42.746Z,15.05
2023-03-06T11:45:24.159Z,12.57
2023-03-06T11:47:53.526Z,12.05
2023-03-06T11:50:49.671Z,13.55
2023-03-06T11:53:21.407Z,10.18
2023-03-06T11:55:54.511Z,11.02
2023-03-06T11:58:46.004Z,11.30
2023-03-06T12:01:15.013Z,12.30
2023-03-06T12:03:47.757Z,14.15
2023-03-06T12:06:30.586Z,13.35
2023-03-06T12:09:01.712Z,14.27
2023-03-06T12:11:49.576Z,12.10
2023-03-06T12:14:41.287Z,13.65
2023-03-06T12:17:08.452Z,11.88
2023-03-06T12:19:38.419Z,12.85
2023-03-06T12:22:24.345Z,9.40
2023-03-06T12:25:06.204Z,9.45
2023-03-06T12:27:33.264Z,9.98
2023-03-06T12:30:21.561Z,9.15
2023-03-06T12:33:10.391Z,8.65
2023-03-06T12:35:40.053Z,6.55
2023-03-06T12:38:34.835Z,11.27
2023-03-06T12:41:10.805Z,17.55
2023-03-06T12:43:50.455Z,18.25
2023-03-06T12:46:21.523Z,19.85
2023-03-06T12:49:03.271Z,19.13
2023-03-06T12:51:30.281Z,16.52
2023-03-06T12:53:57.969Z,14.85
2023-03-06T12:56:24.815Z,16.38
2023-03-06T12:58:53.187Z,14.20
2023-03-06T13:01:35.915Z,13.18
2023-03-06T13:04:24.252Z,14.32
2023-03-06T13:06:59.998Z,11.15
2023-03-06T13:09:36.004Z,14.25
2023-03-06T13:12:21.379Z,11.07
2023-03-06T13:14:54.819Z,11.45
2023-03-06T13:17:27.766Z,10.25
2023-03-06T13:20:13.518Z,7.78
2023-03-06T13:22:44.302Z,10.63
2023-03-06T13:25:17.409Z,9.57
2023-03-06T13:27:45.365Z,8.75
2023-03-06T13:30:39.086Z,7.47
2023-03-06T13:33:25.003Z,9.50
2023-03-06T13:35:59.083Z,8.63
2023-03-06T13:38:39.513Z,8.45
2023-03-06T13:41:25.100Z,7.63
2023-03-06T13:44:02.918Z,6.80
2023-03-06T13:46:35.229Z,7.05
2023-03-06T13:49:08.055Z,7.90
2023-03-06T13:51:54.134Z,6.63
2023-03-06T13:57:02.396Z,7.22
2023-03-06T14:00:12.046Z,5.68
2023-03-06T14:02:56.555Z,5.82
2023-03-06T14:05:23.607Z,7.53
2023-03-06T14:08:09.164Z,5.80
2023-03-06T14:10:36.348Z,5.40
2023-03-06T14:13:13.109Z,6.25
2023-03-06T14:15:44.593Z,6.90
2023-03-06T14:18:20.538Z,5.47
2023-03-06T14:21:08.895Z,7.90
2023-03-06T14:23:38.286Z,6.28
2023-03-06T14:26:15.271Z,7.80
2023-03-06T14:29:03.059Z,8.25
2023-03-06T14:31:34.191Z,8.50
2023-03-06T14:34:08.799Z,9.57
2023-03-06T14:36:41.744Z,9.48
2023-03-06T14:39:15.755Z,10.20
2023-03-06T14:41:42.594Z,10.02
2023-03-06T14:44:21.512Z,8.88
2023-03-06T14:46:55.741Z,11.82
2023-03-06T14:49:24.731Z,11.50
2023-03-06T14:51:56.413Z,12.30
2023-03-06T14:54:28.008Z,10.27
2023-03-06T14:57:00.236Z,10.10
2023-03-06T14:59:28.987Z,9.65
2023-03-06T15:02:03.794Z,14.52
2023-03-06T15:04:38.595Z,12.30
2023-03-06T15:07:08.048Z,11.60
2023-03-06T15:09:36.125Z,14.60
2023-03-06T15:12:10.378Z,13.10
2023-03-06T15:14:41.840Z,12.15
2023-03-06T15:17:18.199Z,11.95
2023-03-06T15:19:46.804Z,14.98
2023-03-06T15:22:25.822Z,15.15
2023-03-06T15:24:53.038Z,18.75
2023-03-06T15:27:26.335Z,15.18
2023-03-06T15:29:53.446Z,16.00
2023-03-06T15:32:32.223Z,19.73
2023-03-06T15:35:24.538Z,17.83
2023-03-06T15:37:51.699Z,18.23
2023-03-06T15:40:23.180Z,18.17
2023-03-06T15:42:51.088Z,18.48
2023-03-06T15:45:22.812Z,19.73
2023-03-06T15:47:50.713Z,21.17
2023-03-06T15:50:19.733Z,20.63
2023-03-06T15:52:46.719Z,17.70
2023-03-06T15:55:14.724Z,22.33
2023-03-06T15:57:52.956Z,18.00
2023-03-06T16:00:28.677Z,19.67
2023-03-06T16:02:56.415Z,23.42
2023-03-06T16:05:23.694Z,19.00
2023-03-06T16:07:50.693Z,22.52
2023-03-06T16:10:19.473Z,21.30
2023-03-06T16:12:57.123Z,22.77
2023-03-06T16:15:28.916Z,31.40
2023-03-06T16:17:56.668Z,25.48
2023-03-06T16:20:25.196Z,27.77
2023-03-06T16:22:53.750Z,28.75
2023-03-06T16:25:21.097Z,26.95
2023-03-06T16:27:55.569Z,29.23
2023-03-06T16:30:23.054Z,26.40
2023-03-06T16:32:49.886Z,27.45
2023-03-06T16:35:18.449Z,27.85
2023-03-06T16:37:45.522Z,30.60
2023-03-06T16:40:22.153Z,28.90
2023-03-06T16:42:49.790Z,29.83
2023-03-06T16:45:17.776Z,31.67
2023-03-06T16:47:45.028Z,34.75
2023-03-06T16:50:33.562Z,37.22
2023-03-06T16:53:00.480Z,32.08
2023-03-06T16:55:28.021Z,33.95
2023-03-06T16:57:54.779Z,33.15
2023-03-06T17:00:22.283Z,38.17
2023-03-06T17:02:49.192Z,37.22
2023-03-06T17:05:16.420Z,36.13
2023-03-06T17:07:43.179Z,32.70
2023-03-06T17:10:12.739Z,35.67
2023-03-06T17:12:39.525Z,36.40
2023-03-06T17:15:07.108Z,38.95
2023-03-06T17:17:34.134Z,37.00
2023-03-06T17:20:01.520Z,36.08
2023-03-06T17:22:29.005Z,40.03
2023-03-06T17:24:56.110Z,41.45
2023-03-06T17:27:23.017Z,41.10
2023-03-06T17:29:50.169Z,44.28
2023-03-06T17:32:16.945Z,37.40
2023-03-06T17:34:44.145Z,43.75
2023-03-06T17:37:10.923Z,42.33
2023-03-06T17:39:38.893Z,45.42
2023-03-06T17:42:06.492Z,41.30
2023-03-06T17:44:34.338Z,42.40
2023-03-06T17:47:01.303Z,44.80
2023-03-06T17:49:28.421Z,45.60
2023-03-06T17:51:56.523Z,48.25
2023-03-06T17:54:26.129Z,50.13
2023-03-06T17:56:53.563Z,46.20
2023-03-06T17:59:20.737Z,41.53
2023-03-06T18:01:47.575Z,46.28
2023-03-06T18:04:14.717Z,41.90
2023-03-06T18:06:41.471Z,37.83
2023-03-06T18:09:10.110Z,39.22
2023-03-06T18:11:37.275Z,37.47
2023-03-06T18:14:05.557Z,37.30
2023-03-06T18:16:32.575Z,34.47
2023-03-06T18:18:59.710Z,40.17
2023-03-06T18:21:26.670Z,40.22
2023-03-06T18:23:53.774Z,37.80
2023-03-06T18:26:30.004Z,34.25
2023-03-06T18:28:58.390Z,35.70
2023-03-06T18:31:31.790Z,34.08
2023-03-06T18:34:02.907Z,32.63
2023-03-06T18:36:30.842Z,36.20
2023-03-06T18:38:58.485Z,33.50
2023-03-06T18:41:25.314Z,35.85
2023-03-06T18:43:53.658Z,36.47
2023-03-06T18:46:20.425Z,34.10
2023-03-06T18:48:47.502Z,38.50
2023-03-06T18:51:14.308Z,39.70
2023-03-06T18:53:41.550Z,36.97
2023-03-06T18:56:09.485Z,37.72
2023-03-06T18:58:36.693Z,39.03
2023-03-06T19:01:07.213Z,43.83
2023-03-06T19:03:34.436Z,43.13
2023-03-06T19:06:07.341Z,42.42
2023-03-06T19:08:35.089Z,47.08
2023-03-06T19:11:12.213Z,46.05
2023-03-06T19:13:39.350Z,41.28
2023-03-06T19:16:06.705Z,43.45
2023-03-06T19:18:34.048Z,42.50
2023-03-06T19:21:11.724Z,43.58
2023-03-06T19:23:39.554Z,46.95
2023-03-06T19:26:07.561Z,42.08
2023-03-06T19:28:36.259Z,41.92
2023-03-06T19:31:18.452Z,43.45
2023-03-06T19:33:47.413Z,41.53
2023-03-06T19:36:14.871Z,48.38
2023-03-06T19:38:42.014Z,42.30
2023-03-06T19:41:13.426Z,48.60
2023-03-06T19:43:41.305Z,43.67
2023-03-06T19:46:14.333Z,45.58
2023-03-06T19:48:41.830Z,38.30
2023-03-06T19:51:08.768Z,51.92
2023-03-06T19:53:35.908Z,57.30
2023-03-06T19:56:11.835Z,56.53
2023-03-06T19:58:40.704Z,50.25
2023-03-06T20:01:12.159Z,57.25
2023-03-06T20:03:39.490Z,55.97
2023-03-06T20:06:09.027Z,56.72
2023-03-06T20:08:36.624Z,59.50
2023-03-06T20:11:04.085Z,56.92
2023-03-06T20:13:31.401Z,52.67
2023-03-06T20:16:02.395Z,53.22
2023-03-06T20:18:29.608Z,48.90
2023-03-06T20:21:03.401Z,49.83
2023-03-06T20:23:30.744Z,49.10
2023-03-06T20:26:01.736Z,50.25
2023-03-06T20:28:28.837Z,47.38
2023-03-06T20:30:55.586Z,44.65
2023-03-06T20:33:23.284Z,42.08
2023-03-06T20:35:50.181Z,45.70
2023-03-06T20:38:17.302Z,45.72
2023-03-06T20:40:44.155Z,40.53
2023-03-06T20:43:11.307Z,42.95
2023-03-06T20:45:38.064Z,41.03
2023-03-06T20:48:05.314Z,40.80
2023-03-06T20:50:32.066Z,48.80
2023-03-06T20:52:59.148Z,48.20
2023-03-06T20:55:25.947Z,41.65
2023-03-06T20:57:53.021Z,42.05
2023-03-06T21:00:21.000Z,43.10
2023-03-06T21:02:48.220Z,40.80
2023-03-06T21:05:15.111Z,50.85
2023-03-06T21:07:42.278Z,39.30
2023-03-06T21:10:09.591Z,49.30
2023-03-06T21:12:36.713Z,47.28
2023-03-06T21:15:03.769Z,44.92
2023-03-06T21:17:30.878Z,48.17
2023-03-06T21:19:58.456Z,45.25
2023-03-06T21:22:25.619Z,43.03
2023-03-06T21:24:52.432Z,46.17
2023-03-06T21:27:19.585Z,47.20
2023-03-06T21:29:46.563Z,52.42
2023-03-06T21:32:13.771Z,52.88
2023-03-06T21:34:40.590Z,49.70
2023-03-06T21:37:07.636Z,54.50
2023-03-06T21:39:34.850Z,53.35
2023-03-06T21:42:02.059Z,58.42
2023-03-06T21:44:28.821Z,61.58
2023-03-06T21:46:55.887Z,57.45
2023-03-06T21:49:26.045Z,56.88
2023-03-06T21:51:53.405Z,58.50
2023-03-06T21:54:20.207Z,62.10
2023-03-06T21:56:47.477Z,57.72
2023-03-06T21:59:14.326Z,56.70
2023-03-06T22:01:42.769Z,59.35
2023-03-06T22:04:09.600Z,55.65
2023-03-06T22:06:37.939Z,54.33
2023-03-06T22:09:04.687Z,55.55
2023-03-06T22:11:34.266Z,53.20
2023-03-06T22:14:01.123Z,50.63
2023-03-06T22:16:28.358Z,48.08
2023-03-06T22:18:55.228Z,51.33
2023-03-06T22:21:22.579Z,52.47
2023-03-06T22:23:53.406Z,50.22
2023-03-06T22:26:20.596Z,52.53
2023-03-06T22:28:47.540Z,49.90
2023-03-06T22:31:16.590Z,51.92
2023-03-06T22:33:43.464Z,49.47
2023-03-06T22:36:12.553Z,50.53
2023-03-06T22:38:40.408Z,54.97
2023-03-06T22:41:07.851Z,51.63
2023-03-06T22:43:34.902Z,50.72
2023-03-06T22:46:15.853Z,54.80
2023-03-06T22:48:42.741Z,57.38
2023-03-06T22:51:11.442Z,57.65
2023-03-06T22:53:38.373Z,55.58
2023-03-06T22:56:07.746Z,58.60
2023-03-06T22:58:37.068Z,54.10
2023-03-06T23:01:05.843Z,60.08
2023-03-06T23:03:32.624Z,54.47
2023-03-06T23:05:59.696Z,56.13
2023-03-06T23:08:26.569Z,59.42
2023-03-06T23:10:53.682Z,56.72
2023-03-06T23:13:20.409Z,59.92
2023-03-06T23:15:47.538Z,56.90
2023-03-06T23:18:14.328Z,64.32
2023-03-06T23:20:43.490Z,52.40
2023-03-06T23:23:10.789Z,56.97
2023-03-06T23:25:37.847Z,56.00
2023-03-06T23:28:04.720Z,58.20
2023-03-06T23:30:31.862Z,59.80
2023-03-06T23:32:58.614Z,59.13
2023-03-06T23:35:25.746Z,55.83
2023-03-06T23:37:52.512Z,64.50
2023-03-06T23:40:19.615Z,59.92
2023-03-06T23:42:46.351Z,56.80
2023-03-06T23:45:13.409Z,60.38
2023-03-06T23:47:40.276Z,54.63
2023-03-06T23:50:07.761Z,55.42
2023-03-06T23:52:34.565Z,66.75
2023-03-06T23:55:01.585Z,62.22
2023-03-06T23:57:29.280Z,58.90
2023-03-06T23:59:56.864Z,60.22
